createdAt,value
2022-07-31T00:00:08.827Z,88.81
2022-07-31T00:01:08.809Z,88.92
2022-07-31T00:02:08.804Z,89.01
2022-07-31T00:03:08.892Z,89.72
2022-07-31T00:04:08.777Z,89.66
2022-07-31T00:05:08.773Z,89.97
2022-07-31T00:06:08.765Z,90.67
2022-07-31T00:07:08.753Z,90.37
2022-07-31T00:08:08.736Z,91.12
2022-07-31T00:09:45.551Z,90.88
2022-07-31T00:10:09.724Z,91.22
2022-07-31T00:11:08.703Z,91.78
2022-07-31T00:12:08.711Z,91.42
2022-07-31T00:13:08.702Z,91.63
2022-07-31T00:14:08.681Z,91.99
2022-07-31T00:15:08.668Z,91.73
2022-07-31T00:16:08.657Z,91.42
2022-07-31T00:17:08.657Z,91.93
2022-07-31T00:18:08.656Z,91.63
2022-07-31T00:19:08.620Z,92.44
2022-07-31T00:20:08.615Z,92.84
2022-07-31T00:21:08.603Z,93.35
2022-07-31T00:22:08.599Z,92.84
2022-07-31T00:23:08.584Z,93.04
2022-07-31T00:24:08.584Z,92.88
2022-07-31T00:25:08.557Z,93.44
2022-07-31T00:26:08.546Z,93.65
2022-07-31T00:27:08.534Z,93.65
2022-07-31T00:28:08.534Z,93.65
2022-07-31T00:29:08.515Z,93.65
2022-07-31T00:30:08.544Z,93.55
2022-07-31T00:31:08.501Z,93.75
2022-07-31T00:32:08.486Z,93.75
2022-07-31T00:33:08.482Z,93.65
2022-07-31T00:34:08.467Z,93.70
2022-07-31T00:35:08.510Z,93.49
2022-07-31T00:36:08.447Z,93.70
2022-07-31T00:37:08.439Z,93.79
2022-07-31T00:38:26.395Z,94.20
2022-07-31T00:39:09.412Z,93.95
2022-07-31T00:40:08.400Z,94.00
2022-07-31T00:41:08.396Z,94.00
2022-07-31T00:42:08.380Z,94.10
2022-07-31T00:43:08.374Z,93.90
2022-07-31T00:44:12.207Z,93.55
2022-07-31T00:45:08.357Z,93.90
2022-07-31T00:46:08.342Z,94.10
2022-07-31T00:47:09.335Z,94.60
2022-07-31T00:48:08.323Z,93.90
2022-07-31T00:49:08.397Z,94.50
2022-07-31T00:50:08.311Z,94.50
2022-07-31T00:51:08.292Z,94.81
2022-07-31T00:52:08.271Z,94.71
2022-07-31T00:53:08.277Z,94.71
2022-07-31T00:54:08.271Z,94.65
2022-07-31T00:55:08.258Z,94.40
2022-07-31T00:56:08.235Z,94.91
2022-07-31T00:57:08.229Z,94.91
2022-07-31T00:58:08.209Z,94.55
2022-07-31T00:59:08.221Z,94.85
2022-07-31T01:00:08.196Z,94.85
2022-07-31T01:01:08.220Z,94.85
2022-07-31T01:02:08.167Z,94.85
2022-07-31T01:03:08.155Z,95.15
2022-07-31T01:04:08.155Z,95.86
2022-07-31T01:05:09.146Z,95.56
2022-07-31T01:06:08.131Z,95.66
2022-07-31T01:07:08.121Z,95.76
2022-07-31T01:08:08.109Z,95.76
2022-07-31T01:09:08.102Z,96.07
2022-07-31T01:10:08.097Z,96.17
2022-07-31T01:11:08.087Z,97.28
2022-07-31T01:12:08.062Z,96.53
2022-07-31T01:13:08.048Z,96.33
2022-07-31T01:14:08.040Z,97.03
2022-07-31T01:15:08.058Z,97.24
2022-07-31T01:16:08.021Z,96.53
2022-07-31T01:17:08.032Z,96.02
2022-07-31T01:18:08.002Z,96.83
2022-07-31T01:19:07.990Z,96.02
2022-07-31T01:20:07.972Z,95.82
2022-07-31T01:21:07.973Z,96.02
2022-07-31T01:22:07.951Z,95.97
2022-07-31T01:23:08.952Z,96.17
2022-07-31T01:24:07.932Z,96.07
2022-07-31T01:25:07.927Z,96.47
2022-07-31T01:26:07.919Z,96.47
2022-07-31T01:27:07.902Z,96.37
2022-07-31T01:28:07.888Z,96.37
2022-07-31T01:29:07.885Z,96.37
2022-07-31T01:30:07.873Z,96.27
2022-07-31T01:31:25.929Z,96.07
2022-07-31T01:32:08.851Z,96.47
2022-07-31T01:33:07.833Z,96.47
2022-07-31T01:34:07.826Z,96.31
2022-07-31T01:35:07.821Z,96.42
2022-07-31T01:36:07.797Z,96.78
2022-07-31T01:37:07.800Z,97.23
2022-07-31T01:38:07.781Z,96.62
2022-07-31T01:39:07.766Z,97.28
2022-07-31T01:40:07.765Z,97.49
2022-07-31T01:41:07.760Z,97.08
2022-07-31T01:42:07.752Z,96.72
2022-07-31T01:43:07.727Z,96.57
2022-07-31T01:44:07.721Z,97.43
2022-07-31T01:45:08.700Z,97.02
2022-07-31T01:46:07.691Z,97.38
2022-07-31T01:47:07.704Z,97.33
2022-07-31T01:48:07.685Z,97.38
2022-07-31T01:49:07.729Z,97.53
2022-07-31T01:50:07.655Z,97.83
2022-07-31T01:51:07.650Z,98.19
2022-07-31T01:52:07.773Z,98.24
2022-07-31T01:53:07.635Z,98.29
2022-07-31T01:54:07.628Z,97.99
2022-07-31T01:55:07.590Z,98.14
2022-07-31T01:56:07.587Z,97.89
2022-07-31T01:57:07.573Z,98.29
2022-07-31T01:58:07.564Z,98.39
2022-07-31T01:59:20.174Z,98.14
2022-07-31T02:00:28.623Z,98.39
2022-07-31T02:01:08.605Z,98.05
2022-07-31T02:02:09.834Z,97.54
2022-07-31T02:03:09.775Z,97.85
2022-07-31T02:04:07.503Z,98.05
2022-07-31T02:05:07.511Z,97.74
2022-07-31T02:06:07.481Z,97.44
2022-07-31T02:07:07.462Z,97.08
2022-07-31T02:08:07.450Z,97.28
2022-07-31T02:09:07.455Z,97.18
2022-07-31T02:10:07.430Z,97.38
2022-07-31T02:11:08.464Z,97.79
2022-07-31T02:12:09.716Z,97.28
2022-07-31T02:13:07.404Z,97.69
2022-07-31T02:14:07.385Z,97.49
2022-07-31T02:15:07.375Z,97.58
2022-07-31T02:16:07.363Z,97.49
2022-07-31T02:17:07.371Z,97.18
2022-07-31T02:18:07.353Z,97.33
2022-07-31T02:19:07.337Z,96.92
2022-07-31T02:20:07.328Z,97.23
2022-07-31T02:21:07.317Z,96.72
2022-07-31T02:22:07.320Z,96.82
2022-07-31T02:23:07.317Z,97.23
2022-07-31T02:24:07.276Z,96.97
2022-07-31T02:25:07.285Z,97.58
2022-07-31T02:26:07.465Z,97.67
2022-07-31T02:27:07.243Z,97.33
2022-07-31T02:28:08.240Z,97.58
2022-07-31T02:29:07.236Z,97.78
2022-07-31T02:30:08.220Z,97.78
2022-07-31T02:31:07.206Z,98.28
2022-07-31T02:32:07.199Z,98.28
2022-07-31T02:33:07.186Z,98.28
2022-07-31T02:34:07.174Z,98.28
2022-07-31T02:35:07.171Z,97.88
2022-07-31T02:36:07.159Z,97.78
2022-07-31T02:37:07.132Z,98.28
2022-07-31T02:38:07.128Z,98.28
2022-07-31T02:39:08.115Z,97.83
2022-07-31T02:40:07.110Z,98.28
2022-07-31T02:41:07.098Z,98.28
2022-07-31T02:42:07.390Z,98.08
2022-07-31T02:43:07.322Z,98.03
2022-07-31T02:44:07.065Z,98.18
2022-07-31T02:45:07.050Z,98.49
2022-07-31T02:46:07.050Z,97.62
2022-07-31T02:47:07.040Z,97.62
2022-07-31T02:48:07.029Z,98.43
2022-07-31T02:49:07.092Z,98.59
2022-07-31T02:50:06.994Z,98.43
2022-07-31T02:51:06.987Z,98.43
2022-07-31T02:52:07.330Z,98.43
2022-07-31T02:53:06.971Z,98.84
2022-07-31T02:54:06.968Z,98.33
2022-07-31T02:55:06.952Z,98.33
2022-07-31T02:56:06.925Z,98.33
2022-07-31T02:57:06.914Z,98.54
2022-07-31T02:58:06.917Z,98.54
2022-07-31T02:59:06.919Z,98.48
2022-07-31T03:00:06.880Z,98.28
2022-07-31T03:01:06.947Z,98.68
2022-07-31T03:02:07.288Z,98.43
2022-07-31T03:03:06.845Z,98.74
2022-07-31T03:04:06.844Z,98.48
2022-07-31T03:05:06.834Z,98.58
2022-07-31T03:06:06.819Z,98.58
2022-07-31T03:07:06.804Z,98.79
2022-07-31T03:08:06.794Z,98.84
2022-07-31T03:09:06.791Z,99.55
2022-07-31T03:10:06.774Z,99.40
2022-07-31T03:11:06.777Z,99.44
2022-07-31T03:12:06.960Z,99.65
2022-07-31T03:13:06.744Z,99.30
2022-07-31T03:14:06.736Z,99.55
2022-07-31T03:15:06.720Z,99.35
2022-07-31T03:16:06.724Z,99.44
2022-07-31T03:17:06.707Z,99.55
2022-07-31T03:18:08.983Z,99.65
2022-07-31T03:19:06.672Z,99.44
2022-07-31T03:20:06.659Z,99.65
2022-07-31T03:21:06.654Z,99.85
2022-07-31T03:22:06.979Z,99.44
2022-07-31T03:23:06.641Z,99.44
2022-07-31T03:24:06.625Z,99.95
2022-07-31T03:25:06.606Z,99.75
2022-07-31T03:26:06.606Z,99.85
2022-07-31T03:27:06.600Z,99.44
2022-07-31T03:28:06.591Z,99.85
2022-07-31T03:29:06.581Z,99.65
2022-07-31T03:30:07.580Z,99.75
2022-07-31T03:31:06.547Z,99.75
2022-07-31T03:32:06.928Z,99.85
2022-07-31T03:33:06.536Z,99.44
2022-07-31T03:34:06.513Z,99.99
2022-07-31T03:35:06.506Z,99.60
2022-07-31T03:36:06.499Z,99.65
2022-07-31T03:37:06.479Z,99.55
2022-07-31T03:38:41.455Z,99.60
2022-07-31T03:39:07.452Z,99.80
2022-07-31T03:40:06.449Z,99.99
2022-07-31T03:41:06.441Z,99.70
2022-07-31T03:42:06.669Z,99.80
2022-07-31T03:43:07.418Z,99.80
2022-07-31T03:44:06.411Z,99.99
2022-07-31T03:45:06.394Z,99.70
2022-07-31T03:46:06.376Z,99.80
2022-07-31T03:47:06.373Z,99.66
2022-07-31T03:48:06.360Z,99.55
2022-07-31T03:49:06.385Z,99.76
2022-07-31T03:50:06.344Z,99.55
2022-07-31T03:51:06.324Z,99.46
2022-07-31T03:52:11.487Z,99.55
2022-07-31T03:53:07.323Z,99.41
2022-07-31T03:54:06.298Z,99.30
2022-07-31T03:55:06.299Z,99.36
2022-07-31T03:56:06.266Z,99.05
2022-07-31T03:57:06.271Z,99.01
2022-07-31T03:58:06.248Z,98.30
2022-07-31T03:59:06.253Z,98.50
2022-07-31T04:00:07.420Z,98.05
2022-07-31T04:01:08.401Z,97.85
2022-07-31T04:02:06.884Z,98.05
2022-07-31T04:03:06.202Z,97.96
2022-07-31T04:04:06.190Z,97.60
2022-07-31T04:05:09.915Z,96.49
2022-07-31T04:06:06.186Z,96.25
2022-07-31T04:07:06.159Z,95.59
2022-07-31T04:08:06.149Z,95.70
2022-07-31T04:09:15.356Z,95.79
2022-07-31T04:10:07.129Z,94.54
2022-07-31T04:11:06.123Z,94.24
2022-07-31T04:12:06.508Z,93.13
2022-07-31T04:13:06.089Z,92.22
2022-07-31T04:14:06.076Z,91.27
2022-07-31T04:15:06.073Z,90.41
2022-07-31T04:16:06.067Z,89.75
2022-07-31T04:17:06.060Z,88.85
2022-07-31T04:18:06.051Z,88.85
2022-07-31T04:19:06.034Z,88.85
2022-07-31T04:20:06.040Z,88.85
2022-07-31T04:21:06.012Z,88.85
2022-07-31T04:22:06.355Z,87.84
2022-07-31T04:23:07.212Z,88.95
2022-07-31T04:24:05.978Z,88.90
2022-07-31T04:25:05.974Z,88.50
2022-07-31T04:26:05.968Z,89.11
2022-07-31T04:27:10.712Z,88.81
2022-07-31T04:28:06.936Z,88.90
2022-07-31T04:29:05.955Z,88.81
2022-07-31T04:30:05.914Z,88.20
2022-07-31T04:31:05.905Z,88.30
2022-07-31T04:32:06.353Z,88.46
2022-07-31T04:33:05.884Z,88.76
2022-07-31T04:34:05.867Z,89.26
2022-07-31T04:35:05.876Z,89.47
2022-07-31T04:36:05.852Z,89.26
2022-07-31T04:37:06.842Z,89.47
2022-07-31T04:38:05.824Z,90.17
2022-07-31T04:39:05.821Z,90.33
2022-07-31T04:40:05.821Z,89.73
2022-07-31T04:41:05.835Z,88.92
2022-07-31T04:42:10.690Z,89.67
2022-07-31T04:43:06.775Z,89.77
2022-07-31T04:44:05.760Z,89.67
2022-07-31T04:45:05.750Z,89.63
2022-07-31T04:46:17.130Z,88.92
2022-07-31T04:47:06.752Z,88.92
2022-07-31T04:48:05.725Z,89.12
2022-07-31T04:49:05.791Z,88.72
2022-07-31T04:50:05.706Z,88.72
2022-07-31T04:51:05.685Z,88.82
2022-07-31T04:52:06.170Z,87.57
2022-07-31T04:53:05.677Z,87.57
2022-07-31T04:54:05.664Z,87.93
2022-07-31T04:55:05.652Z,87.53
2022-07-31T04:56:05.639Z,87.29
2022-07-31T04:57:05.624Z,86.99
2022-07-31T04:58:05.630Z,86.18
2022-07-31T04:59:05.646Z,86.12
2022-07-31T05:00:05.603Z,86.99
2022-07-31T05:01:05.582Z,85.82
2022-07-31T05:02:05.959Z,86.48
2022-07-31T05:03:05.562Z,85.82
2022-07-31T05:04:05.553Z,85.68
2022-07-31T05:05:05.560Z,86.88
2022-07-31T05:06:05.541Z,86.79
2022-07-31T05:07:05.528Z,86.18
2022-07-31T05:08:05.520Z,85.33
2022-07-31T05:09:08.583Z,85.17
2022-07-31T05:10:05.505Z,85.98
2022-07-31T05:11:05.494Z,85.48
2022-07-31T05:12:05.910Z,85.98
2022-07-31T05:13:05.465Z,85.28
2022-07-31T05:14:05.453Z,85.58
2022-07-31T05:15:05.454Z,85.48
2022-07-31T05:16:05.439Z,85.58
2022-07-31T05:17:05.452Z,85.84
2022-07-31T05:18:05.415Z,85.53
2022-07-31T05:19:05.399Z,85.53
2022-07-31T05:20:06.389Z,85.24
2022-07-31T05:21:05.381Z,84.83
2022-07-31T05:22:05.852Z,84.69
2022-07-31T05:23:06.666Z,85.30
2022-07-31T05:24:05.355Z,84.15
2022-07-31T05:25:05.335Z,83.51
2022-07-31T05:26:05.336Z,83.71
2022-07-31T05:27:05.323Z,83.11
2022-07-31T05:28:08.910Z,81.70
2022-07-31T05:29:05.309Z,82.60
2022-07-31T05:30:05.283Z,82.60
2022-07-31T05:31:05.275Z,82.45
2022-07-31T05:32:05.292Z,82.20
2022-07-31T05:33:05.260Z,82.46
2022-07-31T05:34:05.242Z,81.76
2022-07-31T05:35:05.239Z,81.50
2022-07-31T05:36:05.218Z,81.70
2022-07-31T05:37:05.215Z,81.94
2022-07-31T05:38:05.214Z,82.24
2022-07-31T05:39:06.206Z,82.34
2022-07-31T05:40:05.177Z,82.98
2022-07-31T05:41:05.183Z,83.25
2022-07-31T05:42:05.686Z,82.64
2022-07-31T05:43:05.154Z,82.34
2022-07-31T05:44:05.162Z,82.70
2022-07-31T05:45:05.135Z,81.50
2022-07-31T05:46:05.121Z,82.17
2022-07-31T05:47:05.113Z,81.40
2022-07-31T05:48:05.104Z,82.24
2022-07-31T05:49:05.136Z,82.95
2022-07-31T05:50:05.082Z,83.15
2022-07-31T05:51:05.844Z,82.84
2022-07-31T05:52:05.603Z,82.20
2022-07-31T05:53:05.053Z,82.31
2022-07-31T05:54:05.031Z,81.60
2022-07-31T05:55:05.040Z,82.54
2022-07-31T05:56:05.016Z,82.04
2022-07-31T05:57:05.008Z,83.04
2022-07-31T05:58:04.999Z,83.25
2022-07-31T05:59:04.997Z,82.34
2022-07-31T06:00:04.987Z,83.45
2022-07-31T06:01:05.024Z,83.11
2022-07-31T06:02:05.368Z,82.81
2022-07-31T06:03:04.938Z,82.70
2022-07-31T06:04:04.931Z,83.27
2022-07-31T06:05:04.938Z,81.67
2022-07-31T06:06:04.916Z,81.76
2022-07-31T06:07:04.904Z,82.17
2022-07-31T06:08:04.887Z,80.72
2022-07-31T06:09:05.142Z,80.12
2022-07-31T06:10:04.870Z,80.58
2022-07-31T06:11:04.863Z,80.98
2022-07-31T06:12:05.327Z,80.35
2022-07-31T06:13:04.847Z,79.14
2022-07-31T06:14:04.829Z,79.85
2022-07-31T06:15:04.809Z,79.10
2022-07-31T06:16:04.805Z,79.10
2022-07-31T06:17:04.799Z,80.27
2022-07-31T06:18:04.787Z,77.76
2022-07-31T06:19:04.770Z,77.70
2022-07-31T06:20:04.763Z,77.94
2022-07-31T06:21:04.749Z,79.18
2022-07-31T06:22:05.064Z,79.85
2022-07-31T06:23:19.839Z,78.94
2022-07-31T06:24:05.715Z,78.70
2022-07-31T06:25:04.713Z,78.41
2022-07-31T06:26:04.854Z,78.70
2022-07-31T06:27:04.684Z,78.00
2022-07-31T06:28:05.234Z,79.10
2022-07-31T06:29:05.692Z,77.86
2022-07-31T06:30:04.650Z,77.47
2022-07-31T06:31:04.640Z,77.91
2022-07-31T06:32:05.143Z,78.20
2022-07-31T06:33:08.066Z,77.80
2022-07-31T06:34:04.623Z,76.90
2022-07-31T06:35:04.612Z,78.36
2022-07-31T06:36:04.602Z,77.86
2022-07-31T06:37:04.582Z,78.17
2022-07-31T06:38:04.565Z,77.83
2022-07-31T06:39:04.570Z,78.13
2022-07-31T06:40:04.553Z,78.13
2022-07-31T06:41:04.555Z,78.89
2022-07-31T06:42:04.899Z,76.29
2022-07-31T06:43:06.903Z,76.53
2022-07-31T06:44:04.520Z,75.83
2022-07-31T06:45:04.493Z,76.97
2022-07-31T06:46:04.488Z,77.63
2022-07-31T06:47:04.501Z,76.93
2022-07-31T06:48:04.488Z,77.63
2022-07-31T06:49:08.559Z,77.17
2022-07-31T06:50:04.442Z,76.97
2022-07-31T06:51:28.256Z,76.97
2022-07-31T06:52:06.015Z,76.83
2022-07-31T06:53:04.423Z,77.23
2022-07-31T06:54:04.416Z,75.79
2022-07-31T06:55:04.418Z,76.89
2022-07-31T06:56:04.381Z,75.49
2022-07-31T06:57:04.378Z,75.46
2022-07-31T06:58:04.373Z,75.46
2022-07-31T06:59:04.359Z,75.26
2022-07-31T07:00:07.275Z,75.09
2022-07-31T07:01:05.409Z,75.52
2022-07-31T07:02:04.621Z,75.63
2022-07-31T07:03:04.310Z,75.49
2022-07-31T07:04:04.308Z,75.59
2022-07-31T07:05:05.891Z,75.79
2022-07-31T07:06:04.290Z,75.79
2022-07-31T07:07:04.277Z,76.45
2022-07-31T07:08:04.265Z,76.22
2022-07-31T07:09:04.250Z,74.42
2022-07-31T07:10:04.267Z,73.92
2022-07-31T07:11:04.235Z,75.68
2022-07-31T07:12:04.339Z,73.58
2022-07-31T07:13:04.231Z,73.79
2022-07-31T07:14:04.205Z,74.12
2022-07-31T07:15:04.197Z,73.12
2022-07-31T07:16:04.186Z,73.72
2022-07-31T07:17:04.198Z,74.08
2022-07-31T07:18:04.164Z,73.99
2022-07-31T07:19:04.147Z,73.95
2022-07-31T07:20:04.142Z,72.95
2022-07-31T07:21:04.132Z,72.75
2022-07-31T07:22:04.380Z,72.52
2022-07-31T07:23:04.146Z,72.52
2022-07-31T07:24:04.103Z,72.12
2022-07-31T07:25:04.090Z,72.25
2022-07-31T07:26:04.081Z,72.72
2022-07-31T07:27:04.065Z,72.25
2022-07-31T07:28:04.065Z,73.05
2022-07-31T07:29:04.057Z,72.25
2022-07-31T07:30:04.033Z,72.75
2022-07-31T07:31:04.027Z,72.92
2022-07-31T07:32:04.343Z,71.52
2022-07-31T07:33:04.035Z,72.81
2022-07-31T07:34:03.997Z,72.55
2022-07-31T07:35:04.005Z,71.22
2022-07-31T07:36:03.967Z,71.22
2022-07-31T07:37:03.955Z,69.99
2022-07-31T07:38:03.947Z,70.15
2022-07-31T07:39:03.955Z,71.05
2022-07-31T07:40:04.344Z,70.85
2022-07-31T07:41:03.928Z,67.83
2022-07-31T07:42:04.143Z,67.97
2022-07-31T07:43:03.911Z,70.72
2022-07-31T07:44:03.939Z,70.98
2022-07-31T07:45:07.856Z,70.89
2022-07-31T07:46:03.863Z,70.32
2022-07-31T07:47:03.861Z,67.07
2022-07-31T07:48:06.134Z,67.54
2022-07-31T07:49:03.874Z,68.99
2022-07-31T07:50:03.840Z,69.20
2022-07-31T07:51:03.823Z,67.50
2022-07-31T07:52:03.808Z,67.44
2022-07-31T07:53:03.797Z,67.77
2022-07-31T07:54:03.785Z,67.80
2022-07-31T07:55:03.775Z,68.60
2022-07-31T07:56:03.768Z,69.03
2022-07-31T07:57:03.754Z,69.23
2022-07-31T07:58:03.736Z,67.67
2022-07-31T07:59:03.733Z,68.83
2022-07-31T08:00:03.730Z,68.04
2022-07-31T08:01:03.788Z,69.23
2022-07-31T08:02:04.054Z,69.73
2022-07-31T08:03:49.253Z,69.49
2022-07-31T08:04:04.687Z,69.96
2022-07-31T08:05:03.682Z,68.99
2022-07-31T08:06:03.664Z,67.90
2022-07-31T08:07:03.642Z,68.00
2022-07-31T08:08:03.662Z,67.57
2022-07-31T08:09:03.628Z,67.18
2022-07-31T08:10:03.615Z,67.21
2022-07-31T08:11:03.605Z,66.71
2022-07-31T08:12:03.916Z,67.31
2022-07-31T08:13:03.586Z,66.98
2022-07-31T08:14:03.578Z,66.08
2022-07-31T08:15:03.566Z,65.62
2022-07-31T08:16:03.547Z,67.60
2022-07-31T08:17:03.565Z,67.90
2022-07-31T08:18:03.541Z,69.03
2022-07-31T08:19:03.529Z,69.26
2022-07-31T08:20:03.515Z,70.15
2022-07-31T08:21:03.502Z,68.60
2022-07-31T08:22:03.745Z,69.79
2022-07-31T08:23:03.495Z,70.59
2022-07-31T08:24:03.475Z,70.26
2022-07-31T08:25:05.338Z,70.75
2022-07-31T08:26:03.451Z,69.32
2022-07-31T08:27:03.437Z,68.73
2022-07-31T08:28:04.423Z,68.33
2022-07-31T08:29:05.137Z,69.73
2022-07-31T08:30:03.418Z,69.82
2022-07-31T08:31:03.392Z,70.03
2022-07-31T08:32:03.738Z,67.83
2022-07-31T08:33:03.378Z,68.83
2022-07-31T08:34:03.359Z,69.16
2022-07-31T08:35:03.377Z,69.56
2022-07-31T08:36:03.347Z,69.46
2022-07-31T08:38:01.361Z,69.36
2022-07-31T08:38:04.968Z,70.56
2022-07-31T08:39:03.305Z,69.46
2022-07-31T08:40:03.297Z,70.15
2022-07-31T08:41:03.307Z,69.82
2022-07-31T08:42:03.704Z,70.09
2022-07-31T08:43:10.621Z,69.89
2022-07-31T08:44:04.717Z,69.85
2022-07-31T08:45:03.243Z,69.85
2022-07-31T08:46:03.291Z,69.76
2022-07-31T08:47:03.248Z,67.67
2022-07-31T08:48:03.215Z,67.00
2022-07-31T08:49:03.301Z,67.63
2022-07-31T08:50:03.191Z,67.24
2022-07-31T08:51:03.181Z,68.13
2022-07-31T08:52:03.390Z,67.50
2022-07-31T08:53:03.185Z,69.09
2022-07-31T08:54:03.158Z,67.50
2022-07-31T08:55:03.141Z,68.00
2022-07-31T08:56:03.128Z,67.70
2022-07-31T08:57:03.479Z,68.00
2022-07-31T08:58:03.112Z,69.20
2022-07-31T08:59:03.128Z,69.26
2022-07-31T09:00:03.097Z,68.16
2022-07-31T09:01:03.163Z,67.44
2022-07-31T09:02:03.301Z,65.02
2022-07-31T09:03:03.056Z,65.39
2022-07-31T09:04:03.044Z,63.93
2022-07-31T09:05:03.052Z,64.26
2022-07-31T09:06:03.043Z,65.16
2022-07-31T09:07:03.517Z,64.46
2022-07-31T09:08:03.010Z,65.45
2022-07-31T09:09:03.991Z,66.41
2022-07-31T09:10:02.980Z,64.62
2022-07-31T09:11:02.984Z,64.83
2022-07-31T09:12:02.990Z,63.86
2022-07-31T09:13:02.953Z,64.49
2022-07-31T09:14:03.445Z,64.46
2022-07-31T09:15:02.939Z,64.23
2022-07-31T09:16:02.926Z,66.51
2022-07-31T09:17:03.190Z,64.40
2022-07-31T09:18:02.918Z,65.09
2022-07-31T09:19:02.894Z,65.46
2022-07-31T09:20:03.883Z,63.77
2022-07-31T09:21:02.873Z,63.70
2022-07-31T09:22:05.230Z,61.91
2022-07-31T09:23:03.874Z,63.31
2022-07-31T09:24:02.846Z,64.20
2022-07-31T09:25:02.835Z,63.51
2022-07-31T09:26:02.817Z,63.80
2022-07-31T09:27:03.107Z,63.51
2022-07-31T09:28:02.801Z,62.71
2022-07-31T09:29:02.816Z,63.60
2022-07-31T09:30:02.775Z,64.76
2022-07-31T09:31:02.774Z,65.06
2022-07-31T09:32:02.758Z,62.55
2022-07-31T09:33:02.750Z,61.36
2022-07-31T09:34:02.729Z,62.05
2022-07-31T09:35:02.760Z,62.55
2022-07-31T09:36:02.716Z,63.64
2022-07-31T09:37:03.032Z,63.74
2022-07-31T09:38:04.363Z,64.43
2022-07-31T09:39:04.162Z,62.55
2022-07-31T09:40:02.675Z,63.54
2022-07-31T09:41:02.676Z,64.23
2022-07-31T09:42:16.434Z,64.31
2022-07-31T09:43:03.654Z,63.58
2022-07-31T09:44:02.629Z,59.94
2022-07-31T09:45:03.633Z,62.75
2022-07-31T09:46:02.614Z,62.98
2022-07-31T09:47:02.903Z,63.67
2022-07-31T09:48:02.597Z,63.90
2022-07-31T09:49:02.627Z,64.07
2022-07-31T09:50:02.567Z,64.14
2022-07-31T09:51:02.570Z,64.43
2022-07-31T09:52:02.560Z,62.92
2022-07-31T09:53:02.544Z,63.51
2022-07-31T09:54:02.529Z,64.54
2022-07-31T09:55:02.520Z,60.61
2022-07-31T09:56:03.511Z,61.10
2022-07-31T09:57:02.915Z,61.50
2022-07-31T09:58:02.482Z,62.85
2022-07-31T09:59:02.478Z,61.47
2022-07-31T10:00:02.460Z,60.19
2022-07-31T10:01:02.541Z,61.67
2022-07-31T10:02:02.466Z,61.37
2022-07-31T10:03:02.435Z,61.83
2022-07-31T10:04:02.421Z,60.94
2022-07-31T10:05:02.428Z,61.11
2022-07-31T10:06:02.406Z,60.72
2022-07-31T10:07:02.835Z,58.94
2022-07-31T10:08:02.390Z,58.34
2022-07-31T10:09:02.369Z,58.54
2022-07-31T10:10:02.358Z,58.25
2022-07-31T10:11:02.367Z,58.57
2022-07-31T10:12:02.349Z,58.47
2022-07-31T10:13:02.363Z,58.67
2022-07-31T10:14:02.318Z,59.17
2022-07-31T10:15:02.315Z,60.55
2022-07-31T10:16:02.302Z,59.95
2022-07-31T10:17:02.675Z,61.41
2022-07-31T10:18:02.276Z,62.27
2022-07-31T10:19:02.280Z,59.97
2022-07-31T10:20:02.265Z,58.26
2022-07-31T10:21:02.253Z,57.54
2022-07-31T10:22:02.251Z,57.54
2022-07-31T10:23:02.240Z,56.73
2022-07-31T10:24:02.237Z,55.96
2022-07-31T10:25:02.206Z,54.58
2022-07-31T10:26:02.196Z,57.57
2022-07-31T10:27:10.961Z,57.57
2022-07-31T10:28:03.179Z,57.64
2022-07-31T10:29:02.177Z,56.36
2022-07-31T10:30:02.165Z,56.82
2022-07-31T10:31:02.137Z,55.51
2022-07-31T10:32:02.128Z,55.41
2022-07-31T10:33:02.124Z,55.62
2022-07-31T10:34:02.112Z,55.58
2022-07-31T10:35:02.121Z,55.95
2022-07-31T10:36:02.087Z,55.09
2022-07-31T10:37:02.655Z,55.16
2022-07-31T10:38:02.118Z,54.87
2022-07-31T10:39:02.062Z,54.87
2022-07-31T10:40:02.058Z,54.87
2022-07-31T10:41:02.057Z,53.78
2022-07-31T10:42:02.033Z,54.80
2022-07-31T10:43:03.046Z,53.61
2022-07-31T10:44:02.004Z,54.55
2022-07-31T10:45:02.002Z,55.15
2022-07-31T10:46:01.992Z,54.97
2022-07-31T10:47:02.499Z,55.00
2022-07-31T10:48:01.977Z,54.90
2022-07-31T10:49:08.506Z,53.81
2022-07-31T10:50:02.951Z,55.77
2022-07-31T10:51:01.932Z,55.64
2022-07-31T10:52:01.936Z,54.82
2022-07-31T10:53:01.918Z,55.07
2022-07-31T10:54:01.912Z,53.88
2022-07-31T10:55:01.906Z,53.66
2022-07-31T10:56:01.888Z,52.65
2022-07-31T10:57:02.383Z,52.55
2022-07-31T10:58:01.868Z,53.02
2022-07-31T10:59:01.863Z,51.28
2022-07-31T11:00:01.840Z,54.60
2022-07-31T11:01:01.829Z,52.82
2022-07-31T11:02:01.887Z,53.02
2022-07-31T11:03:01.831Z,52.36
2022-07-31T11:04:02.829Z,53.02
2022-07-31T11:05:01.811Z,54.11
2022-07-31T11:06:03.197Z,53.61
2022-07-31T11:07:01.923Z,52.46
2022-07-31T11:08:01.763Z,52.58
2022-07-31T11:09:01.761Z,52.09
2022-07-31T11:10:01.747Z,52.14
2022-07-31T11:11:03.437Z,54.93
2022-07-31T11:12:01.735Z,55.43
2022-07-31T11:13:01.716Z,55.94
2022-07-31T11:14:01.707Z,58.29
2022-07-31T11:15:01.697Z,55.22
2022-07-31T11:16:01.690Z,55.94
2022-07-31T11:17:02.000Z,56.38
2022-07-31T11:18:20.838Z,55.64
2022-07-31T11:19:02.658Z,55.22
2022-07-31T11:20:01.647Z,55.09
2022-07-31T11:21:09.463Z,53.44
2022-07-31T11:22:30.958Z,54.48
2022-07-31T11:23:02.621Z,54.71
2022-07-31T11:24:04.302Z,54.53
2022-07-31T11:25:02.595Z,56.61
2022-07-31T11:26:01.585Z,55.13
2022-07-31T11:27:01.722Z,55.05
2022-07-31T11:28:01.575Z,56.07
2022-07-31T11:30:00.250Z,56.67
2022-07-31T11:30:06.694Z,57.56
2022-07-31T11:31:02.534Z,55.77
2022-07-31T11:32:01.516Z,55.08
2022-07-31T11:33:01.506Z,56.20
2022-07-31T11:34:01.501Z,55.21
2022-07-31T11:35:01.510Z,55.13
2022-07-31T11:36:01.491Z,55.26
2022-07-31T11:37:01.464Z,55.56
2022-07-31T11:38:01.454Z,56.23
2022-07-31T11:39:01.443Z,55.53
2022-07-31T11:40:01.440Z,55.21
2022-07-31T11:41:01.452Z,55.08
2022-07-31T11:42:01.414Z,54.29
2022-07-31T11:44:02.393Z,54.69
2022-07-31T11:45:01.384Z,54.39
2022-07-31T11:46:02.382Z,53.99
2022-07-31T11:47:01.627Z,54.29
2022-07-31T11:48:12.762Z,53.40
2022-07-31T11:49:02.399Z,53.30
2022-07-31T11:50:01.411Z,53.87
2022-07-31T11:51:01.329Z,52.09
2022-07-31T11:52:01.320Z,53.55
2022-07-31T11:53:01.341Z,51.67
2022-07-31T11:54:01.299Z,53.25
2022-07-31T11:55:05.409Z,52.39
2022-07-31T11:56:02.279Z,52.06
2022-07-31T11:57:08.876Z,52.53
2022-07-31T11:58:09.949Z,52.61
2022-07-31T11:59:01.289Z,52.11
2022-07-31T12:00:26.288Z,51.00
2022-07-31T12:01:02.260Z,51.37
2022-07-31T12:02:01.223Z,52.92
2022-07-31T12:03:01.266Z,51.64
2022-07-31T12:04:08.277Z,50.04
2022-07-31T12:05:02.194Z,51.18
2022-07-31T12:06:01.222Z,49.60
2022-07-31T12:07:01.291Z,50.16
2022-07-31T12:08:01.654Z,49.16
2022-07-31T12:09:01.171Z,49.53
2022-07-31T12:10:03.439Z,46.28
2022-07-31T12:11:01.134Z,49.06
2022-07-31T12:12:01.115Z,47.80
2022-07-31T12:13:01.099Z,47.83
2022-07-31T12:14:01.101Z,50.29
2022-07-31T12:15:01.093Z,51.50
2022-07-31T12:16:01.077Z,49.43
2022-07-31T12:17:01.196Z,49.30
2022-07-31T12:18:01.051Z,48.71
2022-07-31T12:19:01.069Z,49.01
2022-07-31T12:20:01.030Z,49.30
2022-07-31T12:21:01.020Z,48.18
2022-07-31T12:22:01.034Z,49.06
2022-07-31T12:23:01.004Z,48.52
2022-07-31T12:24:01.009Z,48.60
2022-07-31T12:25:02.400Z,47.32
2022-07-31T12:26:00.970Z,48.57
2022-07-31T12:27:00.965Z,47.71
2022-07-31T12:28:00.975Z,47.59
2022-07-31T12:29:00.937Z,47.77
2022-07-31T12:30:00.931Z,47.27
2022-07-31T12:31:00.930Z,46.49
2022-07-31T12:32:00.913Z,46.39
2022-07-31T12:33:00.896Z,46.20
2022-07-31T12:34:00.901Z,46.31
2022-07-31T12:35:00.882Z,46.02
2022-07-31T12:36:00.863Z,46.39
2022-07-31T12:37:00.872Z,46.20
2022-07-31T12:38:00.852Z,46.00
2022-07-31T12:39:00.833Z,46.20
2022-07-31T12:40:01.626Z,46.59
2022-07-31T12:41:00.831Z,46.12
2022-07-31T12:42:00.801Z,46.31
2022-07-31T12:43:00.826Z,47.99
2022-07-31T12:44:00.783Z,47.71
2022-07-31T12:45:00.777Z,47.03
2022-07-31T12:46:01.770Z,47.64
2022-07-31T12:47:00.751Z,45.62
2022-07-31T12:48:00.746Z,46.53
2022-07-31T12:49:00.761Z,47.80
2022-07-31T12:50:00.728Z,48.10
2022-07-31T12:51:00.712Z,47.69
2022-07-31T12:52:00.709Z,48.67
2022-07-31T12:53:00.698Z,48.94